createdAt,value
2023-04-14T00:03:53.950Z,11.20
2023-04-14T00:06:23.907Z,11.04
2023-04-14T00:09:02.750Z,10.88
2023-04-14T00:11:35.014Z,10.86
2023-04-14T00:14:14.341Z,10.46
2023-04-14T00:16:44.026Z,10.43
2023-04-14T00:19:13.562Z,10.47
2023-04-14T00:21:42.427Z,10.58
2023-04-14T00:24:11.886Z,10.53
2023-04-14T00:26:42.281Z,10.44
2023-04-14T00:29:13.407Z,10.48
2023-04-14T00:31:45.476Z,10.37
2023-04-14T00:34:17.591Z,10.59
2023-04-14T00:36:46.640Z,10.45
2023-04-14T00:39:15.641Z,10.56
2023-04-14T00:41:56.938Z,10.55
2023-04-14T00:44:26.337Z,10.43
2023-04-14T00:46:56.075Z,9.89
2023-04-14T00:49:26.200Z,9.72
2023-04-14T00:51:57.889Z,9.50
2023-04-14T00:54:30.379Z,9.32
2023-04-14T00:56:59.939Z,9.20
2023-04-14T00:59:33.267Z,9.29
2023-04-14T01:02:03.338Z,9.43
2023-04-14T01:04:45.165Z,9.45
2023-04-14T01:07:22.872Z,9.05
2023-04-14T01:09:53.493Z,9.21
2023-04-14T01:12:42.395Z,9.00
2023-04-14T01:16:04.403Z,9.35
2023-04-14T01:20:30.781Z,9.39
2023-04-14T01:23:11.341Z,9.22
2023-04-14T01:25:52.413Z,9.18
2023-04-14T01:28:51.207Z,9.06
2023-04-14T01:31:28.443Z,9.73
2023-04-14T01:34:05.147Z,9.89
2023-04-14T01:36:55.434Z,9.57
2023-04-14T01:39:34.834Z,9.50
2023-04-14T01:42:10.338Z,9.71
2023-04-14T01:44:41.943Z,9.83
2023-04-14T01:47:21.009Z,9.81
2023-04-14T01:49:54.414Z,9.86
2023-04-14T01:52:24.326Z,9.72
2023-04-14T01:54:58.314Z,9.71
2023-04-14T01:57:33.645Z,9.65
2023-04-14T02:00:22.674Z,9.32
2023-04-14T02:02:53.275Z,9.51
2023-04-14T02:05:23.810Z,9.82
2023-04-14T02:07:54.333Z,9.68
2023-04-14T02:10:24.688Z,9.68
2023-04-14T02:12:58.832Z,9.64
2023-04-14T02:15:29.472Z,9.61
2023-04-14T02:18:34.311Z,9.57
2023-04-14T02:21:27.486Z,9.16
2023-04-14T02:23:56.637Z,9.08
2023-04-14T02:26:28.995Z,9.01
2023-04-14T02:29:13.439Z,9.11
2023-04-14T02:31:50.826Z,9.15
2023-04-14T02:34:26.325Z,9.24
2023-04-14T02:36:58.612Z,9.25
2023-04-14T02:39:42.012Z,9.24
2023-04-14T02:42:23.884Z,9.25
2023-04-14T02:44:59.968Z,9.21
2023-04-14T02:47:42.075Z,9.15
2023-04-14T02:50:15.114Z,9.16
2023-04-14T02:52:53.685Z,8.98
2023-04-14T02:55:38.331Z,8.98
2023-04-14T02:58:10.371Z,8.91
2023-04-14T03:00:42.755Z,8.89
2023-04-14T03:03:36.808Z,8.88
2023-04-14T03:06:09.872Z,8.84
2023-04-14T03:08:42.899Z,8.73
2023-04-14T03:11:16.878Z,8.72
2023-04-14T03:13:48.056Z,8.76
2023-04-14T03:16:19.644Z,8.71
2023-04-14T03:18:54.235Z,8.68
2023-04-14T03:21:27.399Z,8.67
2023-04-14T03:23:57.457Z,8.62
2023-04-14T03:26:29.020Z,8.57
2023-04-14T03:29:00.197Z,8.63
2023-04-14T03:31:38.021Z,8.63
2023-04-14T03:34:10.070Z,8.61
2023-04-14T03:37:08.884Z,8.59
2023-04-14T03:39:41.435Z,8.52
2023-04-14T03:42:12.399Z,8.51
2023-04-14T03:44:47.024Z,8.53
2023-04-14T03:47:17.120Z,8.51
2023-04-14T03:49:49.631Z,8.51
2023-04-14T03:52:24.461Z,8.47
2023-04-14T03:55:00.524Z,8.44
2023-04-14T03:57:37.973Z,8.35
2023-04-14T04:00:10.513Z,8.20
2023-04-14T04:02:47.431Z,8.44
2023-04-14T04:05:20.825Z,8.18
2023-04-14T04:07:54.000Z,8.14
2023-04-14T04:10:23.721Z,8.23
2023-04-14T04:12:54.968Z,7.95
2023-04-14T04:15:24.858Z,8.18
2023-04-14T04:17:55.065Z,8.18
2023-04-14T04:20:26.267Z,8.21
2023-04-14T04:22:59.451Z,8.34
2023-04-14T04:25:34.511Z,8.28
2023-04-14T04:28:11.049Z,8.01
2023-04-14T04:31:09.075Z,8.10
2023-04-14T04:35:10.494Z,7.97
2023-04-14T04:38:03.772Z,7.87
2023-04-14T04:40:42.253Z,7.78
2023-04-14T04:43:20.341Z,7.92
2023-04-14T04:46:17.297Z,7.73
2023-04-14T04:48:46.924Z,7.75
2023-04-14T04:51:16.437Z,7.66
2023-04-14T04:53:45.530Z,7.65
2023-04-14T04:56:15.198Z,7.61
2023-04-14T04:58:44.781Z,7.72
2023-04-14T05:01:20.425Z,7.85
2023-04-14T05:03:49.685Z,7.75
2023-04-14T05:06:18.621Z,7.74
2023-04-14T05:08:47.730Z,7.68
2023-04-14T05:11:16.722Z,7.81
2023-04-14T05:13:45.673Z,7.70
2023-04-14T05:16:15.740Z,7.70
2023-04-14T05:18:45.130Z,7.87
2023-04-14T05:21:15.770Z,7.97
2023-04-14T05:23:46.063Z,8.04
2023-04-14T05:26:30.943Z,7.98
2023-04-14T05:29:07.106Z,7.99
2023-04-14T05:31:36.358Z,7.84
2023-04-14T05:34:06.960Z,7.89
2023-04-14T05:36:36.093Z,7.84
2023-04-14T05:39:05.135Z,7.83
2023-04-14T05:41:34.377Z,7.92
2023-04-14T05:44:04.807Z,7.82
2023-04-14T05:46:35.640Z,7.72
2023-04-14T05:49:05.836Z,7.78
2023-04-14T05:51:38.546Z,7.81
2023-04-14T05:54:08.019Z,7.78
2023-04-14T05:56:37.673Z,7.63
2023-04-14T05:59:06.775Z,7.52
2023-04-14T06:01:35.889Z,7.42
2023-04-14T06:04:05.461Z,7.52
2023-04-14T06:06:36.516Z,7.39
2023-04-14T06:09:05.784Z,7.35
2023-04-14T06:11:38.108Z,7.32
2023-04-14T06:14:08.251Z,7.07
2023-04-14T06:16:37.509Z,7.25
2023-04-14T06:19:06.546Z,7.22
2023-04-14T06:21:40.758Z,7.15
2023-04-14T06:24:10.073Z,7.03
2023-04-14T06:26:41.453Z,6.92
2023-04-14T06:29:10.664Z,6.87
2023-04-14T06:31:39.663Z,6.69
2023-04-14T06:34:08.764Z,6.62
2023-04-14T06:36:37.730Z,6.68
2023-04-14T06:39:06.940Z,6.74
2023-04-14T06:41:38.669Z,6.70
2023-04-14T06:44:07.704Z,6.78
2023-04-14T06:46:41.122Z,7.11
2023-04-14T06:49:14.996Z,6.65
2023-04-14T06:51:44.449Z,6.82
2023-04-14T06:54:13.500Z,6.97
2023-04-14T06:56:42.739Z,6.97
2023-04-14T06:59:11.852Z,6.95
2023-04-14T07:01:42.595Z,6.73
2023-04-14T07:04:12.050Z,6.71
2023-04-14T07:06:41.200Z,6.58
2023-04-14T07:09:10.194Z,6.57
2023-04-14T07:11:40.284Z,6.46
2023-04-14T07:14:09.475Z,6.28
2023-04-14T07:16:38.395Z,6.34
2023-04-14T07:19:07.990Z,6.18
2023-04-14T07:21:39.889Z,6.16
2023-04-14T07:24:10.299Z,6.36
2023-04-14T07:26:39.362Z,6.26
2023-04-14T07:29:08.660Z,6.28
2023-04-14T07:31:40.517Z,6.11
2023-04-14T07:34:10.099Z,6.20
2023-04-14T07:36:39.088Z,6.18
2023-04-14T07:39:08.109Z,6.11
2023-04-14T07:41:40.359Z,6.14
2023-04-14T07:44:09.487Z,6.35
2023-04-14T07:46:38.617Z,6.31
2023-04-14T07:49:18.321Z,6.27
2023-04-14T07:51:47.225Z,6.36
2023-04-14T07:54:16.877Z,6.35
2023-04-14T07:56:46.771Z,6.32
2023-04-14T07:59:16.859Z,6.02
2023-04-14T08:01:45.899Z,6.20
2023-04-14T08:04:15.426Z,6.15
2023-04-14T08:06:44.522Z,6.17
2023-04-14T08:09:13.586Z,6.18
2023-04-14T08:11:45.709Z,6.12
2023-04-14T08:14:17.452Z,6.12
2023-04-14T08:16:48.392Z,6.23
2023-04-14T08:19:17.588Z,6.29
2023-04-14T08:21:46.764Z,6.26
2023-04-14T08:24:15.894Z,6.28
2023-04-14T08:26:44.916Z,6.18
2023-04-14T08:29:13.971Z,6.26
2023-04-14T08:31:42.951Z,6.20
2023-04-14T08:34:12.069Z,6.01
2023-04-14T08:36:42.174Z,6.11
2023-04-14T08:39:11.223Z,6.08
2023-04-14T08:41:41.237Z,5.91
2023-04-14T08:44:10.742Z,5.99
2023-04-14T08:46:44.071Z,6.19
2023-04-14T08:49:22.956Z,6.26
2023-04-14T08:51:54.236Z,6.24
2023-04-14T08:54:23.419Z,6.24
2023-04-14T08:56:53.096Z,6.22
2023-04-14T08:59:22.273Z,6.05
2023-04-14T09:01:53.998Z,5.78
2023-04-14T09:04:24.720Z,5.68
2023-04-14T09:06:54.694Z,5.87
2023-04-14T09:09:24.686Z,5.42
2023-04-14T09:11:54.038Z,5.22
2023-04-14T09:14:24.149Z,5.05
2023-04-14T09:16:54.689Z,5.08
2023-04-14T09:19:25.717Z,5.23
2023-04-14T09:21:55.864Z,5.30
2023-04-14T09:24:32.454Z,5.79
2023-04-14T09:27:06.096Z,5.81
2023-04-14T09:29:38.380Z,5.69
2023-04-14T09:32:07.768Z,5.73
2023-04-14T09:34:37.492Z,5.67
2023-04-14T09:37:08.250Z,5.64
2023-04-14T09:39:48.058Z,5.59
2023-04-14T09:42:18.138Z,5.53
2023-04-14T09:45:07.920Z,5.46
2023-04-14T09:47:40.109Z,5.43
2023-04-14T09:50:09.604Z,5.42
2023-04-14T09:52:46.194Z,5.46
2023-04-14T09:55:17.701Z,5.41
2023-04-14T09:57:48.485Z,5.12
2023-04-14T10:00:18.830Z,5.14
2023-04-14T10:02:50.642Z,5.14
2023-04-14T10:05:38.532Z,5.17
2023-04-14T10:08:08.355Z,5.15
2023-04-14T10:10:37.406Z,5.12
2023-04-14T10:13:06.358Z,5.11
2023-04-14T10:15:35.618Z,5.08
2023-04-14T10:18:07.036Z,5.05
2023-04-14T10:20:37.667Z,4.99
2023-04-14T10:23:10.879Z,4.92
2023-04-14T10:25:40.697Z,4.94
2023-04-14T10:28:09.786Z,4.92
2023-04-14T10:30:44.099Z,4.88
2023-04-14T10:33:13.808Z,4.84
2023-04-14T10:35:47.218Z,4.79
2023-04-14T10:38:17.287Z,4.78
2023-04-14T10:40:57.551Z,4.73
2023-04-14T10:43:29.550Z,4.70
2023-04-14T10:45:59.633Z,4.68
2023-04-14T10:48:35.255Z,4.69
2023-04-14T10:51:11.560Z,4.66
2023-04-14T10:53:48.452Z,4.64
2023-04-14T10:56:17.512Z,4.57
2023-04-14T10:58:56.683Z,4.57
2023-04-14T11:01:33.377Z,4.51
2023-04-14T11:04:21.161Z,4.49
2023-04-14T11:06:52.535Z,4.48
2023-04-14T11:09:40.165Z,4.45
2023-04-14T11:12:29.732Z,4.44
2023-04-14T11:15:08.941Z,4.37
2023-04-14T11:17:44.594Z,4.31
2023-04-14T11:20:18.709Z,4.23
2023-04-14T11:22:49.627Z,4.22
2023-04-14T11:25:24.830Z,4.23
2023-04-14T11:27:54.410Z,4.27
2023-04-14T11:30:23.354Z,4.28
2023-04-14T11:32:54.556Z,4.28
2023-04-14T11:35:26.203Z,4.23
2023-04-14T11:38:00.607Z,4.16
2023-04-14T11:40:29.912Z,4.11
2023-04-14T11:43:00.140Z,4.07
2023-04-14T11:45:32.775Z,3.95
2023-04-14T11:48:06.122Z,3.96
2023-04-14T11:50:43.579Z,3.98
2023-04-14T11:53:14.971Z,4.03
2023-04-14T11:55:55.443Z,3.99
2023-04-14T11:58:28.528Z,3.95
2023-04-14T12:01:01.579Z,3.83
2023-04-14T12:03:36.433Z,3.83
2023-04-14T12:06:06.599Z,3.83
2023-04-14T12:08:35.756Z,3.79
2023-04-14T12:11:15.565Z,3.81
2023-04-14T12:13:46.328Z,3.79
2023-04-14T12:16:19.501Z,3.69
2023-04-14T12:18:48.733Z,3.64
2023-04-14T12:21:19.930Z,3.55
2023-04-14T12:23:49.951Z,3.37
2023-04-14T12:26:21.313Z,3.27
2023-04-14T12:28:58.058Z,3.30
2023-04-14T12:31:38.846Z,3.30
2023-04-14T12:34:10.693Z,3.18
2023-04-14T12:36:53.187Z,2.98
2023-04-14T12:39:26.464Z,3.14
2023-04-14T12:42:00.160Z,3.17
2023-04-14T12:44:29.387Z,3.18
2023-04-14T12:47:01.229Z,3.15
2023-04-14T12:49:35.568Z,3.07
2023-04-14T12:52:08.531Z,3.06
2023-04-14T12:54:53.374Z,2.98
2023-04-14T12:57:25.599Z,2.96
2023-04-14T12:59:54.659Z,2.91
2023-04-14T13:02:24.803Z,2.86
2023-04-14T13:04:53.886Z,2.82
2023-04-14T13:07:22.841Z,2.77
2023-04-14T13:09:53.496Z,2.74
2023-04-14T13:12:22.449Z,2.70
2023-04-14T13:14:51.511Z,2.68
2023-04-14T13:17:20.770Z,2.70
2023-04-14T13:19:52.240Z,2.67
2023-04-14T13:22:21.742Z,2.64
2023-04-14T13:24:51.030Z,2.63
2023-04-14T13:27:21.070Z,2.59
2023-04-14T13:29:50.097Z,2.61
2023-04-14T13:32:19.241Z,2.58
2023-04-14T13:34:49.185Z,2.56
2023-04-14T13:37:19.880Z,2.54
2023-04-14T13:39:48.994Z,2.53
2023-04-14T13:42:18.197Z,2.51
2023-04-14T13:44:47.952Z,2.51
2023-04-14T13:47:17.709Z,2.50
2023-04-14T13:49:46.725Z,2.52
2023-04-14T13:52:15.867Z,2.50
2023-04-14T13:54:44.987Z,2.48
2023-04-14T13:57:13.942Z,2.59
2023-04-14T13:59:45.918Z,2.62
2023-04-14T14:02:21.202Z,2.62
2023-04-14T14:04:50.711Z,2.63
2023-04-14T14:07:19.661Z,2.62
2023-04-14T14:09:50.228Z,2.71
2023-04-14T14:12:22.414Z,2.73
2023-04-14T14:14:51.446Z,2.77
2023-04-14T14:17:20.630Z,2.74
2023-04-14T14:19:49.862Z,2.75
2023-04-14T14:22:28.119Z,2.76
2023-04-14T14:25:19.636Z,2.75
2023-04-14T14:27:52.778Z,2.83
2023-04-14T14:30:21.833Z,2.85
2023-04-14T14:32:53.803Z,2.90
2023-04-14T14:35:22.839Z,2.86
2023-04-14T14:37:52.382Z,2.95
2023-04-14T14:40:22.424Z,2.95
2023-04-14T14:42:51.374Z,2.89
2023-04-14T14:45:26.247Z,2.94
2023-04-14T14:48:00.572Z,3.01
2023-04-14T14:50:29.539Z,3.10
2023-04-14T14:52:58.710Z,3.05
2023-04-14T14:55:28.085Z,3.03
2023-04-14T14:57:57.171Z,2.90
2023-04-14T15:00:26.609Z,3.05
2023-04-14T15:03:22.669Z,3.14
2023-04-14T15:05:56.024Z,3.12
2023-04-14T15:08:25.276Z,3.14
2023-04-14T15:10:54.256Z,3.24
2023-04-14T15:13:24.654Z,3.17
2023-04-14T15:15:54.825Z,3.32
2023-04-14T15:18:23.913Z,3.30
2023-04-14T15:20:55.202Z,3.29
2023-04-14T15:23:26.680Z,3.28
2023-04-14T15:25:55.725Z,3.13
2023-04-14T15:28:25.321Z,3.22
2023-04-14T15:30:56.803Z,3.47
2023-04-14T15:33:26.178Z,3.46
2023-04-14T15:35:55.187Z,3.41
2023-04-14T15:38:24.310Z,3.47
2023-04-14T15:40:54.789Z,3.64
2023-04-14T15:43:24.404Z,3.60
2023-04-14T15:45:53.433Z,4.05
2023-04-14T15:48:22.400Z,3.91
2023-04-14T15:50:51.362Z,4.13
2023-04-14T15:53:20.153Z,4.15
2023-04-14T15:55:51.159Z,4.11
2023-04-14T15:58:20.586Z,3.94
2023-04-14T16:00:53.511Z,4.15
2023-04-14T16:03:22.876Z,3.99
2023-04-14T16:06:00.218Z,3.91
2023-04-14T16:08:29.707Z,3.85
2023-04-14T16:10:58.588Z,3.99
2023-04-14T16:13:28.207Z,4.11
2023-04-14T16:15:58.235Z,4.42
2023-04-14T16:18:27.578Z,4.59
2023-04-14T16:20:56.671Z,4.67
2023-04-14T16:23:25.885Z,4.48
2023-04-14T16:25:54.867Z,4.45
2023-04-14T16:28:24.219Z,4.64
2023-04-14T16:30:54.372Z,4.79
2023-04-14T16:33:23.405Z,5.03
2023-04-14T16:35:52.655Z,5.15
2023-04-14T16:38:21.900Z,5.25
2023-04-14T16:40:59.406Z,5.26
2023-04-14T16:43:28.950Z,5.24
2023-04-14T16:46:05.993Z,5.40
2023-04-14T16:48:36.658Z,5.57
2023-04-14T16:51:09.208Z,5.86
2023-04-14T16:53:41.644Z,5.87
2023-04-14T16:56:12.252Z,5.94
2023-04-14T16:58:41.532Z,6.09
2023-04-14T17:01:10.614Z,6.29
2023-04-14T17:03:40.151Z,6.42
2023-04-14T17:06:09.936Z,6.44
2023-04-14T17:08:39.264Z,6.52
2023-04-14T17:11:08.131Z,6.64
2023-04-14T17:13:37.651Z,6.65
2023-04-14T17:16:09.394Z,6.58
2023-04-14T17:18:42.278Z,6.51
2023-04-14T17:21:11.389Z,6.70
2023-04-14T17:23:40.223Z,7.02
2023-04-14T17:26:09.188Z,7.02
2023-04-14T17:28:39.563Z,7.43
2023-04-14T17:31:17.409Z,7.60
2023-04-14T17:33:49.913Z,7.94
2023-04-14T17:36:20.042Z,8.12
2023-04-14T17:38:50.560Z,7.94
2023-04-14T17:41:20.364Z,8.32
2023-04-14T17:43:49.421Z,8.22
2023-04-14T17:46:18.460Z,8.14
2023-04-14T17:48:48.014Z,8.16
2023-04-14T17:51:17.049Z,8.34
2023-04-14T17:53:49.089Z,8.39
2023-04-14T17:56:18.376Z,8.28
2023-04-14T17:58:52.943Z,8.51
2023-04-14T18:01:22.800Z,8.59
2023-04-14T18:03:51.699Z,8.71
2023-04-14T18:06:22.771Z,8.84
2023-04-14T18:08:52.381Z,9.00
2023-04-14T18:11:21.559Z,9.16
2023-04-14T18:13:50.509Z,9.05
2023-04-14T18:16:20.371Z,9.33
2023-04-14T18:18:49.461Z,9.31
2023-04-14T18:21:18.636Z,9.18
2023-04-14T18:24:47.912Z,9.39
2023-04-14T18:26:40.158Z,9.51
2023-04-14T18:29:09.164Z,9.77
2023-04-14T18:31:38.447Z,9.82
2023-04-14T18:34:11.226Z,9.97
2023-04-14T18:37:00.122Z,10.21
2023-04-14T18:39:34.991Z,10.13
2023-04-14T18:42:04.718Z,10.21
2023-04-14T18:44:33.964Z,10.25
2023-04-14T18:47:03.686Z,10.47
2023-04-14T18:49:33.316Z,10.12
2023-04-14T18:52:03.162Z,10.21
2023-04-14T18:54:32.193Z,10.12
2023-04-14T18:57:01.756Z,10.10
2023-04-14T18:59:31.014Z,10.46
2023-04-14T19:02:00.783Z,10.68
2023-04-14T19:04:30.218Z,10.49
2023-04-14T19:06:59.676Z,10.76
2023-04-14T19:09:29.681Z,10.77
2023-04-14T19:11:59.266Z,10.93
2023-04-14T19:14:28.604Z,10.94
2023-04-14T19:16:57.457Z,11.31
2023-04-14T19:19:26.848Z,11.00
2023-04-14T19:21:55.895Z,11.11
2023-04-14T19:24:25.217Z,10.75
2023-04-14T19:26:54.176Z,11.13
2023-04-14T19:29:24.007Z,11.16
2023-04-14T19:32:43.465Z,11.33
2023-04-14T19:35:02.979Z,11.43
2023-04-14T19:37:32.722Z,11.62
2023-04-14T19:40:03.234Z,11.89
2023-04-14T19:42:32.806Z,11.73
2023-04-14T19:45:03.078Z,12.06
2023-04-14T19:47:32.868Z,12.14
2023-04-14T19:50:03.329Z,12.24
2023-04-14T19:52:37.630Z,12.36
2023-04-14T19:55:07.662Z,12.48
2023-04-14T19:57:36.811Z,12.34
2023-04-14T20:00:07.813Z,12.26
2023-04-14T20:02:41.458Z,12.48
2023-04-14T20:05:10.865Z,13.22
2023-04-14T20:07:40.554Z,13.17
2023-04-14T20:10:10.953Z,12.27
2023-04-14T20:12:42.716Z,12.53
2023-04-14T20:15:11.793Z,13.05
2023-04-14T20:17:40.716Z,12.82
2023-04-14T20:20:10.281Z,12.94
2023-04-14T20:22:39.300Z,12.79
2023-04-14T20:25:08.861Z,13.21
2023-04-14T20:27:37.952Z,13.15
2023-04-14T20:33:05.380Z,13.18
2023-04-14T20:35:40.180Z,13.01
2023-04-14T20:38:09.384Z,13.47
2023-04-14T20:40:41.050Z,13.55
2023-04-14T20:43:10.325Z,14.24
2023-04-14T20:45:40.076Z,13.95
2023-04-14T20:48:09.973Z,13.90
2023-04-14T20:50:39.014Z,13.99
2023-04-14T20:53:09.130Z,14.16
2023-04-14T20:55:38.278Z,14.11
2023-04-14T20:58:09.230Z,13.70
2023-04-14T21:00:38.392Z,14.06
2023-04-14T21:03:08.125Z,14.50
2023-04-14T21:05:39.333Z,14.81
2023-04-14T21:08:16.568Z,14.96
2023-04-14T21:11:14.631Z,15.05
2023-04-14T21:15:26.678Z,14.57
2023-04-14T21:16:24.749Z,15.00
2023-04-14T21:18:56.578Z,14.61
2023-04-14T21:21:25.905Z,14.88
2023-04-14T21:23:55.208Z,14.81
2023-04-14T21:26:24.884Z,15.12
2023-04-14T21:28:53.903Z,15.38
2023-04-14T21:31:23.193Z,15.55
2023-04-14T21:33:58.068Z,14.85
2023-04-14T21:36:42.630Z,15.66
2023-04-14T21:39:12.878Z,15.44
2023-04-14T21:41:43.340Z,15.07
2023-04-14T21:44:18.795Z,15.31
2023-04-14T21:46:48.609Z,15.59
2023-04-14T21:49:30.668Z,15.56
2023-04-14T21:52:00.166Z,15.34
2023-04-14T21:54:35.897Z,15.87
2023-04-14T21:57:11.153Z,15.97
2023-04-14T21:59:40.308Z,15.41
2023-04-14T22:02:10.172Z,15.57
2023-04-14T22:04:39.780Z,15.33
2023-04-14T22:07:08.971Z,15.18
2023-04-14T22:09:38.369Z,15.25
2023-04-14T22:12:08.687Z,14.42
2023-04-14T22:14:38.674Z,15.37
2023-04-14T22:17:07.861Z,14.76
2023-04-14T22:19:36.933Z,15.52
2023-04-14T22:22:06.434Z,15.06
2023-04-14T22:24:35.495Z,14.85
2023-04-14T22:27:04.683Z,14.38
2023-04-14T22:29:36.380Z,14.29
2023-04-14T22:32:06.219Z,15.38
2023-04-14T22:34:35.242Z,14.88
2023-04-14T22:37:04.388Z,15.19
2023-04-14T22:39:33.418Z,15.18
2023-04-14T22:42:05.180Z,15.96
2023-04-14T22:44:34.377Z,16.03
2023-04-14T22:47:04.645Z,15.86
2023-04-14T22:49:36.549Z,15.88
2023-04-14T22:52:05.825Z,15.21
2023-04-14T22:54:35.087Z,15.64
2023-04-14T22:57:04.497Z,15.76
2023-04-14T22:59:33.905Z,15.37
2023-04-14T23:02:04.810Z,16.12
2023-04-14T23:04:33.996Z,16.30
2023-04-14T23:07:03.216Z,15.75
2023-04-14T23:09:32.656Z,16.33
2023-04-14T23:12:03.307Z,16.24
2023-04-14T23:14:35.429Z,15.33
2023-04-14T23:17:05.160Z,16.19
2023-04-14T23:19:34.596Z,15.93
2023-04-14T23:22:05.759Z,15.75
2023-04-14T23:24:34.849Z,15.98
2023-04-14T23:27:04.166Z,16.32
2023-04-14T23:29:33.231Z,16.81
2023-04-14T23:32:02.417Z,15.87
2023-04-14T23:34:34.288Z,15.66
2023-04-14T23:37:10.928Z,15.36
2023-04-14T23:39:39.595Z,15.73
2023-04-14T23:42:09.504Z,15.20
2023-04-14T23:44:38.679Z,15.53
2023-04-14T23:47:08.670Z,16.45
2023-04-14T23:49:38.009Z,16.16
2023-04-14T23:52:08.059Z,16.16
2023-04-14T23:54:42.625Z,16.26
2023-04-14T23:57:14.915Z,16.15
2023-04-14T23:59:44.241Z,16.26
